createdAt,value
2022-10-01T00:01:06.322Z,10.27
2022-10-01T00:03:32.475Z,11.50
2022-10-01T00:05:58.629Z,15.63
2022-10-01T00:08:24.776Z,13.13
2022-10-01T00:10:50.902Z,14.05
2022-10-01T00:13:17.048Z,10.35
2022-10-01T00:15:43.162Z,9.57
2022-10-01T00:18:09.276Z,10.77
2022-10-01T00:20:35.449Z,13.43
2022-10-01T00:23:01.569Z,12.48
2022-10-01T00:25:27.687Z,10.10
2022-10-01T00:27:53.842Z,12.10
2022-10-01T00:30:20.004Z,13.55
2022-10-01T00:32:46.153Z,9.55
2022-10-01T00:35:12.262Z,9.68
2022-10-01T00:37:38.383Z,11.35
2022-10-01T00:40:04.528Z,10.07
2022-10-01T00:42:30.643Z,10.65
2022-10-01T00:44:56.770Z,9.23
2022-10-01T00:47:22.879Z,13.50
2022-10-01T00:49:48.996Z,12.77
2022-10-01T00:52:15.121Z,9.65
2022-10-01T00:54:41.248Z,11.63
2022-10-01T00:57:07.389Z,12.43
2022-10-01T00:59:33.506Z,12.90
2022-10-01T01:01:59.782Z,9.98
2022-10-01T01:04:25.977Z,11.38
2022-10-01T01:06:52.104Z,12.80
2022-10-01T01:09:18.214Z,11.40
2022-10-01T01:11:44.348Z,10.38
2022-10-01T01:14:10.474Z,9.52
2022-10-01T01:16:36.579Z,9.85
2022-10-01T01:19:02.711Z,12.35
2022-10-01T01:21:28.830Z,13.15
2022-10-01T01:23:54.986Z,10.48
2022-10-01T01:26:21.114Z,10.13
2022-10-01T01:28:47.241Z,9.23
2022-10-01T01:31:13.399Z,9.63
2022-10-01T01:33:39.596Z,8.40
2022-10-01T01:36:05.718Z,7.68
2022-10-01T01:38:31.878Z,13.02
2022-10-01T01:40:57.999Z,10.25
2022-10-01T01:43:24.112Z,9.07
2022-10-01T01:45:50.266Z,8.45
2022-10-01T01:48:16.422Z,9.90
2022-10-01T01:50:42.543Z,8.73
2022-10-01T01:53:08.649Z,8.40
2022-10-01T01:55:34.774Z,12.65
2022-10-01T01:58:00.899Z,7.80
2022-10-01T02:00:27.048Z,9.52
2022-10-01T02:02:53.208Z,9.95
2022-10-01T02:05:19.352Z,9.00
2022-10-01T02:07:45.471Z,10.93
2022-10-01T02:10:11.629Z,9.35
2022-10-01T02:12:37.792Z,9.98
2022-10-01T02:15:03.918Z,13.13
2022-10-01T02:17:30.044Z,8.30
2022-10-01T02:19:56.180Z,15.15
2022-10-01T02:22:22.283Z,9.18
2022-10-01T02:24:48.397Z,9.85
2022-10-01T02:27:14.561Z,8.15
2022-10-01T02:29:40.662Z,7.25
2022-10-01T02:32:06.791Z,8.10
2022-10-01T02:34:32.897Z,7.15
2022-10-01T02:36:59.033Z,6.97
2022-10-01T02:39:25.170Z,7.50
2022-10-01T02:41:51.290Z,9.15
2022-10-01T02:44:17.400Z,7.93
2022-10-01T02:46:43.536Z,8.25
2022-10-01T02:49:09.661Z,7.70
2022-10-01T02:51:36.221Z,7.63
2022-10-01T02:54:02.564Z,9.90
2022-10-01T02:56:28.687Z,7.32
2022-10-01T02:58:54.829Z,13.30
2022-10-01T03:01:21.009Z,6.50
2022-10-01T03:03:47.183Z,9.48
2022-10-01T03:06:13.294Z,10.43
2022-10-01T03:08:39.443Z,7.57
2022-10-01T03:11:05.566Z,7.00
2022-10-01T03:13:31.688Z,7.28
2022-10-01T03:15:57.877Z,15.00
2022-10-01T03:18:24.092Z,7.88
2022-10-01T03:20:50.213Z,8.18
2022-10-01T03:23:16.333Z,15.20
2022-10-01T03:25:42.455Z,8.00
2022-10-01T03:28:08.704Z,7.07
2022-10-01T03:30:34.830Z,7.40
2022-10-01T03:33:00.944Z,6.53
2022-10-01T03:35:27.082Z,9.02
2022-10-01T03:37:53.193Z,8.48
2022-10-01T03:40:19.319Z,8.02
2022-10-01T03:42:45.465Z,6.75
2022-10-01T03:45:11.572Z,6.32
2022-10-01T03:47:37.678Z,6.32
2022-10-01T03:50:03.794Z,6.45
2022-10-01T03:52:29.907Z,7.28
2022-10-01T03:54:56.048Z,6.40
2022-10-01T03:57:22.177Z,6.18
2022-10-01T03:59:48.280Z,6.80
2022-10-01T04:02:14.520Z,6.47
2022-10-01T04:04:40.783Z,6.95
2022-10-01T04:07:06.912Z,7.28
2022-10-01T04:09:33.054Z,6.63
2022-10-01T04:11:59.188Z,5.07
2022-10-01T04:14:25.307Z,8.02
2022-10-01T04:16:51.454Z,6.82
2022-10-01T04:19:17.595Z,7.32
2022-10-01T04:21:43.719Z,5.38
2022-10-01T04:24:09.853Z,6.22
2022-10-01T04:26:35.981Z,6.68
2022-10-01T04:29:02.100Z,6.05
2022-10-01T04:31:28.252Z,4.63
2022-10-01T04:33:54.457Z,6.10
2022-10-01T04:36:20.596Z,5.07
2022-10-01T04:38:46.740Z,7.55
2022-10-01T04:41:12.865Z,7.57
2022-10-01T04:43:38.982Z,5.50
2022-10-01T04:46:05.137Z,7.47
2022-10-01T04:48:31.273Z,6.78
2022-10-01T04:50:57.511Z,5.63
2022-10-01T04:53:23.651Z,6.85
2022-10-01T04:55:49.773Z,8.88
2022-10-01T04:58:15.928Z,4.25
2022-10-01T05:00:42.123Z,7.00
2022-10-01T05:03:08.290Z,7.15
2022-10-01T05:05:34.394Z,6.38
2022-10-01T05:08:00.537Z,8.05
2022-10-01T05:10:26.683Z,6.63
2022-10-01T05:12:52.849Z,6.47
2022-10-01T05:15:18.987Z,6.82
2022-10-01T05:17:45.118Z,7.88
2022-10-01T05:20:11.266Z,6.25
2022-10-01T05:22:37.379Z,7.53
2022-10-01T05:25:03.494Z,5.68
2022-10-01T05:27:29.652Z,6.15
2022-10-01T05:29:55.837Z,8.48
2022-10-01T05:32:24.030Z,8.88
2022-10-01T05:34:53.642Z,5.63
2022-10-01T05:37:20.021Z,11.15
2022-10-01T05:39:46.216Z,8.30
2022-10-01T05:42:12.372Z,7.30
2022-10-01T05:44:40.004Z,7.38
2022-10-01T05:47:06.153Z,7.85
2022-10-01T05:49:32.298Z,7.85
2022-10-01T05:51:58.465Z,5.80
2022-10-01T05:54:24.615Z,8.75
2022-10-01T05:56:50.757Z,6.95
2022-10-01T05:59:16.925Z,7.32
2022-10-01T06:01:43.219Z,8.88
2022-10-01T06:04:12.287Z,8.45
2022-10-01T06:06:38.626Z,7.13
2022-10-01T06:09:04.830Z,10.40
2022-10-01T06:11:31.123Z,6.95
2022-10-01T06:13:57.489Z,7.38
2022-10-01T06:16:23.685Z,6.97
2022-10-01T06:18:49.850Z,7.05
2022-10-01T06:21:16.034Z,7.43
2022-10-01T06:23:42.190Z,11.63
2022-10-01T06:26:08.352Z,5.68
2022-10-01T06:28:34.460Z,8.52
2022-10-01T06:31:00.620Z,7.85
2022-10-01T06:33:26.753Z,6.70
2022-10-01T06:35:52.898Z,7.47
2022-10-01T06:38:19.048Z,5.63
2022-10-01T06:40:45.182Z,8.38
2022-10-01T06:43:11.449Z,5.55
2022-10-01T06:45:37.586Z,6.93
2022-10-01T06:48:03.729Z,10.93
2022-10-01T06:50:29.879Z,6.78
2022-10-01T06:52:56.016Z,9.80
2022-10-01T06:55:22.156Z,5.03
2022-10-01T06:57:48.261Z,5.25
2022-10-01T07:00:14.399Z,7.78
2022-10-01T07:02:40.603Z,7.03
2022-10-01T07:05:06.798Z,5.00
2022-10-01T07:07:32.936Z,7.43
2022-10-01T07:09:59.067Z,6.22
2022-10-01T07:12:26.250Z,5.45
2022-10-01T07:14:52.571Z,5.80
2022-10-01T07:17:18.693Z,6.80
2022-10-01T07:19:44.816Z,8.30
2022-10-01T07:22:10.976Z,5.15
2022-10-01T07:24:37.133Z,6.40
2022-10-01T07:27:07.223Z,5.45
2022-10-01T07:29:33.700Z,7.03
2022-10-01T07:31:59.959Z,5.22
2022-10-01T07:34:26.179Z,5.35
2022-10-01T07:36:52.350Z,5.15
2022-10-01T07:39:18.537Z,6.43
2022-10-01T07:41:44.678Z,4.38
2022-10-01T07:44:10.800Z,7.10
2022-10-01T07:46:36.949Z,4.47
2022-10-01T07:49:03.063Z,5.03
2022-10-01T07:51:29.188Z,6.07
2022-10-01T07:53:55.349Z,6.65
2022-10-01T07:56:21.451Z,7.18
2022-10-01T07:58:47.583Z,5.22
2022-10-01T08:01:13.786Z,5.45
2022-10-01T08:03:39.997Z,5.18
2022-10-01T08:06:06.103Z,7.13
2022-10-01T08:08:32.290Z,4.97
2022-10-01T08:10:58.436Z,6.20
2022-10-01T08:13:24.602Z,4.60
2022-10-01T08:15:50.788Z,4.47
2022-10-01T08:18:16.922Z,4.50
2022-10-01T08:20:43.065Z,4.45
2022-10-01T08:23:09.225Z,5.60
2022-10-01T08:25:35.494Z,3.53
2022-10-01T08:28:01.693Z,5.13
2022-10-01T08:30:27.864Z,4.63
2022-10-01T08:32:53.981Z,5.82
2022-10-01T08:35:20.088Z,7.90
2022-10-01T08:37:46.240Z,4.97
2022-10-01T08:40:12.339Z,5.25
2022-10-01T08:42:38.480Z,5.43
2022-10-01T08:45:04.612Z,7.93
2022-10-01T08:47:30.722Z,8.43
2022-10-01T08:49:56.886Z,5.97
2022-10-01T08:52:23.040Z,5.72
2022-10-01T08:54:49.138Z,4.75
2022-10-01T09:02:55.966Z,4.78
2022-10-01T09:05:24.879Z,5.65
2022-10-01T09:07:52.165Z,5.38
2022-10-01T09:10:18.459Z,4.57
2022-10-01T09:12:50.721Z,4.93
2022-10-01T09:15:16.878Z,3.53
2022-10-01T09:17:43.006Z,6.15
2022-10-01T09:20:09.129Z,3.97
2022-10-01T09:22:35.257Z,6.65
2022-10-01T09:25:01.381Z,3.97
2022-10-01T09:27:27.551Z,6.15
2022-10-01T09:29:53.742Z,4.85
2022-10-01T09:32:19.905Z,6.45
2022-10-01T09:34:46.091Z,6.97
2022-10-01T09:37:12.225Z,3.90
2022-10-01T09:39:40.194Z,4.15
2022-10-01T09:42:06.303Z,5.93
2022-10-01T09:44:32.672Z,4.65
2022-10-01T09:46:58.794Z,6.47
2022-10-01T09:49:24.987Z,4.13
2022-10-01T09:51:51.143Z,6.63
2022-10-01T09:54:17.268Z,9.48
2022-10-01T09:56:46.158Z,4.80
2022-10-01T09:59:12.384Z,4.70
2022-10-01T10:01:39.013Z,5.03
2022-10-01T10:04:05.265Z,7.13
2022-10-01T10:06:34.028Z,4.60
2022-10-01T10:09:00.335Z,5.15
2022-10-01T10:11:26.465Z,4.22
2022-10-01T10:13:54.937Z,6.18
2022-10-01T10:16:21.135Z,4.57
2022-10-01T10:18:47.300Z,5.68
2022-10-01T10:21:13.433Z,3.70
2022-10-01T10:23:41.673Z,5.07
2022-10-01T10:26:07.786Z,5.25
2022-10-01T10:28:37.639Z,4.38
2022-10-01T10:31:05.266Z,4.50
2022-10-01T10:33:31.603Z,3.83
2022-10-01T10:35:57.720Z,4.90
2022-10-01T10:38:23.879Z,4.88
2022-10-01T10:40:50.021Z,6.53
2022-10-01T10:43:16.186Z,5.28
2022-10-01T10:45:42.320Z,6.15
2022-10-01T10:48:08.443Z,3.60
2022-10-01T10:50:36.904Z,3.53
2022-10-01T10:53:03.059Z,5.07
2022-10-01T10:55:29.183Z,3.47
2022-10-01T10:57:57.707Z,2.67
2022-10-01T11:00:24.211Z,5.43
2022-10-01T11:02:50.331Z,4.18
2022-10-01T11:05:16.463Z,3.65
2022-10-01T11:07:42.601Z,3.90
2022-10-01T11:10:08.711Z,2.97
2022-10-01T11:12:34.842Z,4.45
2022-10-01T11:15:01.009Z,3.78
2022-10-01T11:17:27.164Z,3.10
2022-10-01T11:19:53.312Z,5.57
2022-10-01T11:22:19.472Z,3.13
2022-10-01T11:24:47.809Z,4.15
2022-10-01T11:27:13.955Z,3.30
2022-10-01T11:29:40.062Z,4.18
2022-10-01T11:34:56.236Z,5.00
2022-10-01T11:37:22.344Z,3.08
2022-10-01T11:39:48.513Z,3.33
2022-10-01T11:42:14.654Z,2.80
2022-10-01T11:44:40.798Z,3.25
2022-10-01T11:47:06.914Z,5.82
2022-10-01T11:49:33.048Z,2.85
2022-10-01T11:51:59.216Z,2.70
2022-10-01T11:54:25.332Z,3.42
2022-10-01T11:56:51.472Z,2.83
2022-10-01T11:59:17.638Z,2.40
2022-10-01T12:01:43.833Z,2.97
2022-10-01T12:04:10.023Z,4.82
2022-10-01T12:06:36.482Z,2.75
2022-10-01T12:09:02.840Z,3.55
2022-10-01T12:11:29.005Z,3.63
2022-10-01T12:13:55.138Z,4.70
2022-10-01T12:16:21.351Z,3.10
2022-10-01T12:18:47.519Z,2.40
2022-10-01T12:21:13.663Z,3.70
2022-10-01T12:23:39.829Z,2.33
2022-10-01T12:26:05.948Z,2.95
2022-10-01T12:28:32.180Z,3.55
2022-10-01T12:30:58.377Z,4.28
2022-10-01T12:33:24.526Z,2.33
2022-10-01T12:35:50.685Z,2.55
2022-10-01T12:38:16.808Z,3.40
2022-10-01T12:40:42.921Z,2.67
2022-10-01T12:43:09.065Z,6.22
2022-10-01T12:45:35.182Z,2.63
2022-10-01T12:48:01.353Z,2.70
2022-10-01T12:50:27.471Z,10.88
2022-10-01T12:52:53.598Z,2.22
2022-10-01T12:55:19.748Z,3.47
2022-10-01T12:57:48.923Z,4.60
2022-10-01T13:00:15.062Z,3.33
2022-10-01T13:02:41.227Z,3.35
2022-10-01T13:05:07.367Z,4.82
2022-10-01T13:07:36.314Z,4.03
2022-10-01T13:10:03.313Z,3.92
2022-10-01T13:12:38.536Z,2.97
2022-10-01T13:15:04.704Z,3.05
2022-10-01T13:17:34.588Z,4.28
2022-10-01T13:20:01.073Z,2.95
2022-10-01T13:22:27.173Z,2.38
2022-10-01T13:24:59.142Z,2.40
2022-10-01T13:27:25.288Z,4.43
2022-10-01T13:29:54.519Z,2.90
2022-10-01T13:32:20.733Z,3.05
2022-10-01T13:34:49.908Z,2.88
2022-10-01T13:37:20.845Z,2.60
2022-10-01T13:39:49.070Z,5.60
2022-10-01T13:42:15.198Z,3.10
2022-10-01T13:44:44.447Z,2.70
2022-10-01T13:47:10.624Z,2.70
2022-10-01T13:49:36.804Z,6.55
2022-10-01T13:52:02.991Z,3.28
2022-10-01T13:54:29.120Z,2.40
2022-10-01T13:56:55.249Z,5.63
2022-10-01T13:59:21.461Z,3.83
2022-10-01T14:01:47.644Z,3.45
2022-10-01T14:04:13.827Z,3.47
2022-10-01T14:06:39.965Z,3.80
2022-10-01T14:09:07.391Z,3.15
2022-10-01T14:11:33.527Z,2.08
2022-10-01T14:13:59.692Z,2.55
2022-10-01T14:16:25.834Z,3.67
2022-10-01T14:18:52.008Z,6.60
2022-10-01T14:21:18.243Z,3.63
2022-10-01T14:23:44.380Z,2.25
2022-10-01T14:26:11.345Z,4.05
2022-10-01T14:28:37.486Z,2.38
2022-10-01T14:31:03.678Z,2.50
2022-10-01T14:33:29.850Z,1.80
2022-10-01T14:35:56.478Z,1.90
2022-10-01T14:38:22.651Z,2.55
2022-10-01T14:40:48.824Z,2.17
2022-10-01T14:43:15.110Z,5.43
2022-10-01T14:45:41.298Z,2.55
2022-10-01T14:48:07.421Z,1.83
2022-10-01T14:50:36.543Z,3.35
2022-10-01T14:53:02.681Z,1.50
2022-10-01T14:55:33.497Z,2.97
2022-10-01T14:57:59.628Z,4.53
2022-10-01T15:00:25.773Z,3.40
2022-10-01T15:02:51.971Z,2.38
2022-10-01T15:05:20.274Z,1.60
2022-10-01T15:07:48.982Z,3.08
2022-10-01T15:10:20.545Z,0.98
2022-10-01T15:12:46.760Z,6.22
2022-10-01T15:15:13.001Z,4.30
2022-10-01T15:17:39.145Z,1.60
2022-10-01T15:20:08.016Z,6.13
2022-10-01T15:22:34.280Z,3.05
2022-10-01T15:25:00.419Z,2.05
2022-10-01T15:27:26.557Z,5.30
2022-10-01T15:29:56.001Z,1.58
2022-10-01T15:32:22.703Z,4.50
2022-10-01T15:34:48.828Z,1.13
2022-10-01T15:37:15.177Z,3.58
2022-10-01T15:39:41.352Z,3.30
2022-10-01T15:42:07.499Z,1.92
2022-10-01T15:44:37.636Z,2.78
2022-10-01T15:47:04.756Z,2.25
2022-10-01T15:49:31.048Z,2.67
2022-10-01T15:51:59.700Z,3.05
2022-10-01T15:54:25.933Z,3.95
2022-10-01T15:56:52.064Z,3.38
2022-10-01T15:59:18.214Z,2.28
2022-10-01T16:01:44.378Z,3.08
2022-10-01T16:04:10.592Z,1.80
2022-10-01T16:06:36.729Z,1.73
2022-10-01T16:09:02.852Z,1.98
2022-10-01T16:11:28.987Z,5.85
2022-10-01T16:13:55.158Z,2.08
2022-10-01T16:16:21.406Z,3.20
2022-10-01T16:18:47.641Z,4.15
2022-10-01T16:21:13.784Z,7.28
2022-10-01T16:23:39.906Z,3.55
2022-10-01T16:26:06.131Z,4.10
2022-10-01T16:28:32.398Z,2.85
2022-10-01T16:30:58.556Z,3.20
2022-10-01T16:33:24.667Z,3.45
2022-10-01T16:35:50.808Z,3.53
2022-10-01T16:38:16.956Z,2.67
2022-10-01T16:40:43.098Z,5.10
2022-10-01T16:43:09.231Z,5.35
2022-10-01T16:45:35.462Z,1.98
2022-10-01T16:48:01.621Z,3.47
2022-10-01T16:50:27.760Z,1.85
2022-10-01T16:52:53.881Z,3.28
2022-10-01T16:55:20.079Z,2.85
2022-10-01T16:57:46.208Z,3.90
2022-10-01T17:00:12.360Z,3.90
2022-10-01T17:02:38.483Z,2.88
2022-10-01T17:05:04.638Z,2.75
2022-10-01T17:07:30.758Z,4.35
2022-10-01T17:09:56.933Z,2.83
2022-10-01T17:12:23.054Z,4.38
2022-10-01T17:14:49.167Z,7.25
2022-10-01T17:17:15.379Z,18.50
2022-10-01T17:19:41.633Z,8.20
2022-10-01T17:22:07.795Z,7.53
2022-10-01T17:24:33.937Z,8.18
2022-10-01T17:27:00.037Z,20.17
2022-10-01T17:29:26.208Z,31.48
2022-10-01T17:31:52.440Z,16.00
2022-10-01T17:34:18.724Z,30.00
2022-10-01T17:36:44.869Z,81.95
2022-10-01T17:39:11.021Z,26.83
2022-10-01T17:41:37.399Z,39.35
2022-10-01T17:44:03.523Z,13.70
2022-10-01T17:46:29.776Z,7.43
2022-10-01T17:48:55.955Z,3.40
2022-10-01T17:54:12.154Z,5.57
2022-10-01T17:56:38.316Z,2.65
2022-10-01T17:59:04.445Z,3.80
2022-10-01T18:01:30.631Z,3.75
2022-10-01T18:03:57.165Z,3.25
2022-10-01T18:06:23.328Z,4.70
2022-10-01T18:08:56.950Z,2.08
2022-10-01T18:11:23.179Z,4.07
2022-10-01T18:13:49.373Z,3.55
2022-10-01T18:21:53.202Z,5.72
2022-10-01T18:24:19.346Z,5.07
2022-10-01T18:26:45.474Z,5.18
2022-10-01T18:29:11.614Z,4.53
2022-10-01T18:31:37.826Z,5.65
2022-10-01T18:34:03.989Z,4.40
2022-10-01T18:36:30.121Z,4.32
2022-10-01T18:38:56.242Z,4.15
2022-10-01T18:41:22.393Z,4.82
2022-10-01T18:43:48.516Z,5.22
2022-10-01T18:46:14.791Z,8.90
2022-10-01T18:48:41.041Z,4.40
2022-10-01T18:51:07.183Z,4.20
2022-10-01T18:53:33.331Z,5.97
2022-10-01T18:55:59.478Z,6.28
2022-10-01T18:58:25.582Z,5.60
2022-10-01T19:00:51.916Z,4.97
2022-10-01T19:03:18.183Z,3.45
2022-10-01T19:05:44.359Z,4.63
2022-10-01T19:08:10.504Z,3.55
2022-10-01T19:10:36.649Z,3.10
2022-10-01T19:13:02.882Z,3.10
2022-10-01T19:15:29.044Z,7.18
2022-10-01T19:17:55.205Z,3.95
2022-10-01T19:20:21.559Z,4.95
2022-10-01T19:22:47.666Z,5.13
2022-10-01T19:25:13.866Z,6.43
2022-10-01T19:27:40.012Z,5.90
2022-10-01T19:30:06.152Z,9.02
2022-10-01T19:32:32.309Z,5.45
2022-10-01T19:34:58.449Z,5.65
2022-10-01T19:37:24.635Z,4.47
2022-10-01T19:39:50.737Z,5.10
2022-10-01T19:42:16.862Z,4.88
2022-10-01T19:44:43.028Z,3.60
2022-10-01T19:47:09.185Z,3.67
2022-10-01T19:49:35.316Z,4.18
2022-10-01T19:52:01.530Z,4.60
2022-10-01T19:54:27.664Z,4.97
2022-10-01T19:56:53.795Z,8.93
2022-10-01T19:59:19.924Z,4.45
2022-10-01T20:01:46.147Z,6.45
2022-10-01T20:04:12.339Z,4.15
2022-10-01T20:06:38.660Z,7.53
2022-10-01T20:09:04.879Z,8.95
2022-10-01T20:11:30.990Z,3.88
2022-10-01T20:13:57.172Z,7.18
2022-10-01T20:16:23.486Z,4.80
2022-10-01T20:18:49.676Z,8.57
2022-10-01T20:21:15.842Z,4.20
2022-10-01T20:23:42.085Z,5.90
2022-10-01T20:26:08.258Z,3.67
2022-10-01T20:28:34.480Z,5.53
2022-10-01T20:31:00.607Z,6.95
2022-10-01T20:33:26.783Z,7.40
2022-10-01T20:35:52.933Z,5.32
2022-10-01T20:38:19.295Z,4.95
2022-10-01T20:40:45.470Z,5.70
2022-10-01T20:43:11.658Z,6.80
2022-10-01T20:45:37.867Z,4.20
2022-10-01T20:48:04.039Z,10.30
2022-10-01T20:50:30.176Z,10.98
2022-10-01T20:52:58.404Z,9.75
2022-10-01T20:55:24.542Z,10.40
2022-10-01T20:57:50.681Z,8.05
2022-10-01T21:00:16.822Z,4.85
2022-10-01T21:02:42.942Z,6.85
2022-10-01T21:05:09.076Z,4.80
2022-10-01T21:07:37.207Z,6.15
2022-10-01T21:10:03.354Z,8.32
2022-10-01T21:12:29.508Z,6.65
2022-10-01T21:14:55.601Z,5.03
2022-10-01T21:17:21.749Z,6.65
2022-10-01T21:19:47.886Z,6.78
2022-10-01T21:22:14.044Z,5.32
2022-10-01T21:24:40.182Z,7.88
2022-10-01T21:27:06.323Z,5.70
2022-10-01T21:29:32.474Z,4.45
2022-10-01T21:31:58.667Z,6.80
2022-10-01T21:34:24.803Z,7.13
2022-10-01T21:36:50.946Z,9.02
2022-10-01T21:39:17.096Z,8.23
2022-10-01T21:41:43.218Z,6.03
2022-10-01T21:44:11.314Z,6.75
2022-10-01T21:46:37.874Z,6.35
2022-10-01T21:49:04.387Z,8.68
2022-10-01T21:51:30.502Z,6.30
2022-10-01T21:53:56.647Z,8.10
2022-10-01T21:56:22.793Z,4.35
2022-10-01T21:58:49.878Z,6.60
2022-10-01T22:01:16.146Z,7.35
2022-10-01T22:03:42.324Z,5.55
2022-10-01T22:06:08.450Z,10.95
2022-10-01T22:08:35.573Z,6.00
2022-10-01T22:11:01.686Z,7.50
2022-10-01T22:13:27.799Z,7.07
2022-10-01T22:15:53.990Z,7.40
2022-10-01T22:18:20.144Z,5.40
2022-10-01T22:20:46.253Z,11.25
2022-10-01T22:23:12.387Z,5.95
2022-10-01T22:25:38.517Z,6.00
2022-10-01T22:28:04.698Z,7.85
2022-10-01T22:30:30.866Z,8.90
2022-10-01T22:32:56.996Z,7.90
2022-10-01T22:35:23.102Z,9.35
2022-10-01T22:37:49.232Z,7.85
2022-10-01T22:40:15.380Z,6.80
2022-10-01T22:42:41.500Z,3.95
2022-10-01T22:45:07.625Z,6.03
2022-10-01T22:47:33.765Z,8.98
2022-10-01T22:49:59.896Z,6.22
2022-10-01T22:52:26.015Z,9.07
2022-10-01T22:54:52.152Z,6.15
2022-10-01T22:57:18.294Z,9.88
2022-10-01T22:59:44.464Z,12.27
2022-10-01T23:02:10.662Z,9.57
2022-10-01T23:04:36.909Z,6.72
2022-10-01T23:07:03.024Z,11.82
2022-10-01T23:09:29.157Z,9.35
2022-10-01T23:11:55.321Z,8.32
2022-10-01T23:14:21.434Z,7.72
2022-10-01T23:16:47.673Z,5.97
2022-10-01T23:19:13.854Z,8.20
2022-10-01T23:21:39.983Z,9.77
2022-10-01T23:24:06.136Z,11.63
2022-10-01T23:26:32.353Z,7.65
2022-10-01T23:28:58.557Z,12.15
2022-10-01T23:31:24.732Z,7.97
2022-10-01T23:33:51.129Z,4.82
2022-10-01T23:36:17.307Z,8.98
2022-10-01T23:38:43.438Z,8.82
2022-10-01T23:41:09.579Z,8.02
2022-10-01T23:43:35.703Z,7.68
2022-10-01T23:46:01.888Z,12.40
2022-10-01T23:48:28.068Z,14.07
2022-10-01T23:50:54.201Z,8.45
2022-10-01T23:53:20.535Z,8.13
2022-10-01T23:55:46.680Z,11.63
2022-10-01T23:58:12.795Z,12.15
